Time;durP1;ratioP1;P1;durP2;ratioP2;P2;SDS_P1;SDS_P2;PMS_P1;PMS_P2;Temp;Humidity;BMP_temperature;BMP_pressure;BME280_temperature;BME280_humidity;BME280_pressure;Samples;Min_cycle;Max_cycle;Signal;HPM_P1;HPM_P2
2021/07/10 00:02:11;;;;;;;2.72;1.00;;;;;;;15.99;74.61;100292.06;2191130;79;21034;-75
2021/07/10 00:05:16;;;;;;;2.20;0.90;;;;;;;15.97;74.26;100288.78;2174496;80;21049;-78
2021/07/10 00:08:17;;;;;;;3.72;1.10;;;;;;;15.96;74.41;100292.46;2152174;79;21082;-80
2021/07/10 00:11:19;;;;;;;0.90;0.90;;;;;;;15.91;74.42;100289.06;2104949;81;21070;-77
2021/07/10 00:14:21;;;;;;;3.77;1.65;;;;;;;15.88;74.32;100290.77;2164624;79;21108;-76
2021/07/10 00:17:23;;;;;;;2.83;1.35;;;;;;;15.80;74.25;100289.61;2193992;79;21128;-76
2021/07/10 00:20:24;;;;;;;1.77;1.27;;;;;;;15.75;74.29;100304.91;2178355;80;21036;-75
2021/07/10 00:23:26;;;;;;;0.88;0.88;;;;;;;15.66;74.27;100310.88;2177876;79;21060;-74
2021/07/10 00:26:27;;;;;;;1.20;1.10;;;;;;;15.60;74.31;100310.33;2126115;81;21115;-75
2021/07/10 00:29:29;;;;;;;2.77;1.17;;;;;;;15.52;74.37;100314.48;2153067;80;21014;-75
2021/07/10 00:32:31;;;;;;;1.05;0.95;;;;;;;15.45;74.43;100313.59;2151292;80;21144;-75
2021/07/10 00:35:32;;;;;;;2.55;1.10;;;;;;;15.41;74.41;100321.70;2118508;81;21087;-80
2021/07/10 00:38:34;;;;;;;1.50;0.93;;;;;;;15.41;74.49;100321.70;2192341;79;21091;-74
2021/07/10 00:41:36;;;;;;;0.78;0.78;;;;;;;15.37;74.40;100311.91;2167574;80;21015;-75
2021/07/10 00:44:37;;;;;;;1.05;0.90;;;;;;;15.33;74.48;100309.80;2179604;79;21111;-79
2021/07/10 00:47:40;;;;;;;1.70;1.25;;;;;;;15.31;74.51;100313.17;2178094;80;21030;-76
2021/07/10 00:50:41;;;;;;;3.10;1.10;;;;;;;15.27;74.51;100306.05;2172753;80;21065;-74
2021/07/10 00:53:43;;;;;;;1.37;1.12;;;;;;;15.27;74.51;100311.91;2143310;81;21006;-78
2021/07/10 00:56:48;;;;;;;1.10;1.10;;;;;;;15.25;74.54;100314.25;2148561;81;21015;-80
2021/07/10 00:59:50;;;;;;;1.12;1.00;;;;;;;15.22;74.63;100307.14;2131484;81;21590;-75
2021/07/10 01:02:54;;;;;;;1.00;1.00;;;;;;;15.20;74.70;100310.02;2142891;81;21124;-75
2021/07/10 01:05:55;;;;;;;1.70;1.05;;;;;;;15.22;74.76;100313.30;2139480;81;21517;-74
2021/07/10 01:08:57;;;;;;;2.00;1.32;;;;;;;15.24;74.79;100310.45;2139562;81;21642;-74
2021/07/10 01:11:59;;;;;;;1.52;1.30;;;;;;;15.27;74.85;100306.57;2151063;80;21842;-74
2021/07/10 01:15:01;;;;;;;2.65;0.90;;;;;;;15.31;74.95;100303.81;2157604;79;22483;-75
2021/07/10 01:18:05;;;;;;;1.12;1.02;;;;;;;15.35;74.86;100310.45;2173902;80;21135;-75
2021/07/10 01:21:06;;;;;;;1.82;0.90;;;;;;;15.38;74.90;100313.55;2181057;79;21058;-76
2021/07/10 01:24:07;;;;;;;1.00;0.90;;;;;;;15.42;74.80;100309.97;2184297;79;21568;-75
2021/07/10 01:27:09;;;;;;;1.30;1.00;;;;;;;15.47;74.79;100310.22;2186397;79;21287;-76
2021/07/10 01:30:15;;;;;;;1.35;1.00;;;;;;;15.51;74.73;100310.14;2170514;79;21059;-75
2021/07/10 01:33:19;;;;;;;2.52;1.00;;;;;;;15.55;74.65;100311.42;2178342;80;21131;-76
2021/07/10 01:36:20;;;;;;;5.00;1.12;;;;;;;15.58;74.55;100317.72;2116651;82;21023;-75
2021/07/10 01:39:22;;;;;;;1.12;1.12;;;;;;;15.64;74.57;100325.47;2148280;80;21900;-75
2021/07/10 01:42:24;;;;;;;1.20;1.10;;;;;;;15.66;74.41;100323.44;2157201;80;21028;-76
2021/07/10 01:45:25;;;;;;;1.37;1.25;;;;;;;15.68;74.47;100330.77;2164728;80;21077;-78
2021/07/10 01:48:27;;;;;;;1.40;1.12;;;;;;;15.72;74.41;100344.08;2189287;80;21056;-75
2021/07/10 01:51:28;;;;;;;1.00;1.00;;;;;;;15.78;74.42;100351.84;2166117;79;21591;-75
2021/07/10 01:54:30;;;;;;;1.17;1.10;;;;;;;15.81;74.34;100359.47;2160582;80;21332;-75
2021/07/10 01:57:32;;;;;;;0.90;0.90;;;;;;;15.84;74.35;100369.27;2146184;79;21563;-75
2021/07/10 02:00:39;;;;;;;1.32;1.22;;;;;;;15.86;74.24;100368.56;2147874;79;21119;-75
2021/07/10 02:03:40;;;;;;;2.33;0.90;;;;;;;15.86;74.07;100369.91;2173721;78;21135;-76
2021/07/10 02:06:44;;;;;;;1.32;1.07;;;;;;;15.89;74.01;100386.09;2136097;81;21571;-75
2021/07/10 02:09:48;;;;;;;0.80;0.80;;;;;;;15.93;74.02;100386.52;2131606;81;21126;-79
2021/07/10 02:12:52;;;;;;;1.20;1.10;;;;;;;15.97;74.03;100392.63;2161724;80;21462;-74
2021/07/10 02:15:54;;;;;;;0.88;0.85;;;;;;;16.00;73.91;100390.08;2141335;81;21084;-74
2021/07/10 02:18:57;;;;;;;1.17;1.17;;;;;;;16.00;73.95;100389.56;2148493;79;21062;-77
2021/07/10 02:21:59;;;;;;;7.22;1.25;;;;;;;16.03;74.01;100385.67;2116820;81;21044;-76
2021/07/10 02:25:01;;;;;;;0.90;0.90;;;;;;;16.00;73.84;100376.18;2153790;79;21630;-75
2021/07/10 02:28:03;;;;;;;2.58;0.90;;;;;;;16.00;73.82;100374.84;2148035;80;21603;-75
2021/07/10 02:31:05;;;;;;;1.05;1.00;;;;;;;15.98;73.86;100374.20;2180899;79;21025;-74
2021/07/10 02:34:06;;;;;;;2.35;1.20;;;;;;;16.01;74.06;100371.65;2171646;80;21022;-75
2021/07/10 02:37:08;;;;;;;1.00;1.00;;;;;;;15.99;73.89;100375.84;2157737;79;21123;-77
2021/07/10 02:40:12;;;;;;;1.30;1.20;;;;;;;15.98;73.82;100375.54;2115628;81;21047;-76
2021/07/10 02:43:15;;;;;;;1.37;0.93;;;;;;;15.98;73.79;100373.38;2109815;81;21027;-75
2021/07/10 02:46:17;;;;;;;1.92;0.80;;;;;;;15.95;73.85;100379.95;2137900;81;21060;-75
2021/07/10 02:49:18;;;;;;;0.80;0.80;;;;;;;15.96;73.78;100371.41;2150537;81;21060;-76
2021/07/10 02:52:20;;;;;;;1.57;0.90;;;;;;;15.94;73.86;100371.61;2151514;81;21110;-76
2021/07/10 02:55:24;;;;;;;0.93;0.80;;;;;;;15.95;73.82;100367.08;2142186;81;21139;-75
2021/07/10 02:58:28;;;;;;;2.90;1.00;;;;;;;15.93;73.77;100367.27;2132870;81;22384;-75
2021/07/10 03:01:31;;;;;;;1.00;1.00;;;;;;;15.95;73.79;100375.94;2150382;81;21127;-76
2021/07/10 03:04:33;;;;;;;2.37;1.12;;;;;;;15.93;73.81;100374.47;2141248;81;21076;-75
2021/07/10 03:07:39;;;;;;;0.98;0.90;;;;;;;15.94;73.88;100376.97;2142803;81;21116;-77
2021/07/10 03:10:42;;;;;;;2.17;1.25;;;;;;;15.95;73.81;100378.61;2154019;81;21059;-75
2021/07/10 03:13:43;;;;;;;0.90;0.90;;;;;;;15.95;73.83;100371.92;2147551;81;21766;-77
2021/07/10 03:16:45;;;;;;;1.85;1.00;;;;;;;15.96;73.80;100371.41;2144631;81;21033;-74
2021/07/10 03:19:47;;;;;;;1.32;1.07;;;;;;;15.95;73.79;100379.95;2176528;79;20972;-74
2021/07/10 03:22:49;;;;;;;1.17;1.10;;;;;;;15.96;73.77;100380.77;2188287;79;21002;-76
2021/07/10 03:25:51;;;;;;;3.75;1.15;;;;;;;15.98;73.88;100382.75;2168304;80;21069;-75
2021/07/10 03:28:52;;;;;;;2.35;1.10;;;;;;;16.00;73.82;100388.73;2156070;79;21689;-75
2021/07/10 03:31:54;;;;;;;1.50;1.30;;;;;;;16.02;73.80;100384.00;2173406;79;21022;-74
2021/07/10 03:34:55;;;;;;;0.88;0.88;;;;;;;16.04;73.77;100391.33;2180270;79;21424;-75
2021/07/10 03:38:00;;;;;;;1.95;1.22;;;;;;;16.05;73.78;100384.45;2149382;79;21069;-74
2021/07/10 03:41:02;;;;;;;0.80;0.80;;;;;;;16.08;73.90;100380.56;2141439;81;21029;-75
2021/07/10 03:44:03;;;;;;;1.40;1.00;;;;;;;16.12;73.77;100383.14;2136286;81;21537;-76
2021/07/10 03:47:05;;;;;;;2.15;1.05;;;;;;;16.17;73.79;100383.39;2131939;81;21136;-74
2021/07/10 03:50:11;;;;;;;1.05;1.05;;;;;;;16.21;73.71;100377.12;2144381;81;21189;-75
2021/07/10 03:53:13;;;;;;;1.80;1.10;;;;;;;16.21;73.62;100379.80;2144951;81;21061;-77
2021/07/10 03:56:17;;;;;;;1.12;1.07;;;;;;;16.23;73.76;100382.59;2132256;81;21503;-76
2021/07/10 03:59:18;;;;;;;1.98;0.82;;;;;;;16.38;73.61;100382.46;2153992;80;21102;-75
2021/07/10 04:02:20;;;;;;;1.15;0.98;;;;;;;16.47;73.31;100384.46;2140575;79;21036;-77
2021/07/10 04:05:21;;;;;;;1.47;1.30;;;;;;;16.43;73.23;100397.43;2179466;79;21641;-79
2021/07/10 04:08:23;;;;;;;1.10;1.10;;;;;;;16.39;73.21;100403.37;2164264;80;21071;-74
2021/07/10 04:11:25;;;;;;;1.87;1.00;;;;;;;16.38;73.38;100398.53;2150472;79;21026;-74
2021/07/10 04:14:29;;;;;;;1.20;1.10;;;;;;;16.39;73.35;100396.19;2136432;80;20967;-75
2021/07/10 04:17:31;;;;;;;2.77;1.40;;;;;;;16.42;73.14;100399.80;2166360;80;21547;-79
2021/07/10 04:20:33;;;;;;;2.10;1.50;;;;;;;16.41;72.98;100394.11;2160971;80;21097;-77
2021/07/10 04:23:34;;;;;;;2.75;2.20;;;;;;;16.40;72.99;100405.86;2175335;79;21025;-79
2021/07/10 04:26:36;;;;;;;3.33;2.20;;;;;;;16.36;72.60;100403.28;2140077;81;21064;-75
2021/07/10 04:29:37;;;;;;;2.75;2.55;;;;;;;16.30;72.79;100407.58;2179329;79;21590;-75
2021/07/10 04:32:39;;;;;;;2.50;2.30;;;;;;;16.26;72.99;100404.95;2181347;79;21069;-76
2021/07/10 04:35:41;;;;;;;2.58;2.37;;;;;;;16.26;72.90;100408.15;2187622;79;21327;-74
2021/07/10 04:38:42;;;;;;;2.83;2.10;;;;;;;16.21;72.95;100409.25;2135710;81;21084;-79
2021/07/10 04:41:44;;;;;;;2.65;2.10;;;;;;;16.16;73.03;100412.50;2134457;81;21020;-75
2021/07/10 04:44:45;;;;;;;3.08;1.80;;;;;;;16.13;73.12;100415.09;2154607;80;21081;-75
2021/07/10 04:47:47;;;;;;;2.60;1.85;;;;;;;16.17;73.27;100412.02;2167692;80;21026;-74
2021/07/10 04:50:48;;;;;;;6.58;2.52;;;;;;;16.21;73.34;100427.98;2185641;79;21072;-74
2021/07/10 04:53:50;;;;;;;3.65;2.00;;;;;;;16.22;73.35;100430.97;2159275;79;21331;-75
2021/07/10 04:56:54;;;;;;;2.65;2.30;;;;;;;16.23;73.27;100425.44;2113266;81;21446;-75
2021/07/10 04:59:58;;;;;;;3.62;2.35;;;;;;;16.23;73.30;100423.27;2134109;81;21579;-77
2021/07/10 05:02:59;;;;;;;3.87;2.42;;;;;;;16.25;73.36;100423.39;2134434;81;21064;-74
2021/07/10 05:06:01;;;;;;;2.52;2.33;;;;;;;16.24;73.33;100415.03;2138727;81;21062;-75
2021/07/10 05:09:03;;;;;;;3.17;2.42;;;;;;;16.28;73.34;100419.50;2129737;81;21043;-74
2021/07/10 05:12:05;;;;;;;2.70;2.50;;;;;;;16.32;73.41;100416.73;2136734;81;21159;-74
2021/07/10 05:15:08;;;;;;;2.85;2.27;;;;;;;16.36;73.46;100411.31;2134801;81;21538;-74
2021/07/10 05:18:10;;;;;;;6.85;3.30;;;;;;;16.41;73.43;100416.87;2127053;81;21125;-78
2021/07/10 05:21:11;;;;;;;4.47;2.70;;;;;;;16.50;73.60;100414.38;2135268;81;21126;-76
2021/07/10 05:24:13;;;;;;;4.20;2.27;;;;;;;16.67;73.34;100420.71;2146056;81;21106;-73
2021/07/10 05:27:15;;;;;;;3.65;2.58;;;;;;;16.77;73.04;100423.89;2134436;81;20997;-74
2021/07/10 05:30:18;;;;;;;3.77;2.72;;;;;;;16.82;73.13;100428.66;2139967;81;21063;-74
2021/07/10 05:33:20;;;;;;;3.12;2.83;;;;;;;16.86;73.17;100428.04;2140572;81;20993;-74
2021/07/10 05:36:21;;;;;;;3.37;2.42;;;;;;;16.92;73.14;100425.08;2127593;81;21030;-73
2021/07/10 05:39:23;;;;;;;2.90;2.37;;;;;;;16.99;73.03;100425.94;2145565;81;21782;-76
2021/07/10 05:42:25;;;;;;;2.80;2.60;;;;;;;17.11;73.07;100431.53;2132095;81;21054;-74
2021/07/10 05:45:26;;;;;;;6.08;2.72;;;;;;;17.19;72.89;100430.02;2129773;81;21658;-75
2021/07/10 05:48:29;;;;;;;5.05;2.55;;;;;;;17.30;72.61;100437.98;2135055;81;21129;-74
2021/07/10 05:51:30;;;;;;;5.10;2.10;;;;;;;17.43;72.50;100441.53;2135449;81;21642;-73
2021/07/10 05:54:32;;;;;;;3.72;2.52;;;;;;;17.66;72.23;100444.34;2134724;81;20988;-73
2021/07/10 05:57:34;;;;;;;3.77;2.45;;;;;;;17.85;72.16;100444.05;2128806;81;21081;-76
2021/07/10 06:00:36;;;;;;;3.25;2.33;;;;;;;18.00;71.06;100458.11;2146819;81;21667;-75
2021/07/10 06:03:38;;;;;;;2.60;2.30;;;;;;;18.07;71.24;100462.94;2142015;81;21041;-75
2021/07/10 06:06:39;;;;;;;4.55;2.55;;;;;;;18.17;71.27;100470.59;2136224;81;21025;-80
2021/07/10 06:09:41;;;;;;;2.20;2.00;;;;;;;18.18;70.68;100469.55;2139830;81;21117;-75
2021/07/10 06:12:42;;;;;;;1.75;1.62;;;;;;;18.15;70.53;100476.67;2127253;81;21062;-76
2021/07/10 06:15:44;;;;;;;2.15;1.90;;;;;;;18.01;69.29;100475.03;2142482;81;21097;-74
2021/07/10 06:18:45;;;;;;;3.20;2.15;;;;;;;17.85;70.07;100477.11;2135106;81;21053;-74
2021/07/10 06:21:47;;;;;;;2.37;2.00;;;;;;;17.83;70.34;100475.14;2141553;81;21058;-74
2021/07/10 06:24:49;;;;;;;2.95;2.00;;;;;;;17.75;70.02;100483.35;2140395;81;21065;-82
2021/07/10 06:27:51;;;;;;;3.50;2.30;;;;;;;17.63;70.24;100487.69;2130394;81;21067;-72
2021/07/10 06:30:52;;;;;;;2.80;1.77;;;;;;;17.47;70.23;100489.70;2138499;81;21112;-74
2021/07/10 06:33:54;;;;;;;3.92;1.90;;;;;;;17.42;70.31;100500.73;2142209;81;21548;-74
2021/07/10 06:36:56;;;;;;;2.80;1.90;;;;;;;17.33;70.33;100498.74;2136165;81;21103;-75
2021/07/10 06:39:57;;;;;;;3.33;1.80;;;;;;;17.32;70.58;100493.08;2136833;81;21103;-74
2021/07/10 06:42:59;;;;;;;2.02;1.92;;;;;;;17.37;70.79;100491.97;2127834;81;21061;-84
2021/07/10 06:46:02;;;;;;;5.37;1.80;;;;;;;17.45;70.83;100491.75;2141611;81;21484;-71
2021/07/10 06:49:03;;;;;;;2.45;1.98;;;;;;;17.58;70.79;100492.83;2132182;81;22114;-75
2021/07/10 06:52:07;;;;;;;2.92;1.80;;;;;;;17.66;70.71;100493.98;2132535;81;21591;-74
2021/07/10 06:55:12;;;;;;;3.70;2.02;;;;;;;17.74;70.59;100496.47;2135189;81;21093;-71
2021/07/10 06:58:16;;;;;;;3.55;1.87;;;;;;;17.79;70.54;100488.64;2133111;81;21140;-74
2021/07/10 07:01:19;;;;;;;3.67;2.17;;;;;;;17.83;70.44;100478.34;2140051;81;21483;-75
2021/07/10 07:04:21;;;;;;;2.92;1.87;;;;;;;17.98;70.32;100482.98;2155172;79;21038;-74
2021/07/10 07:07:22;;;;;;;5.12;2.00;;;;;;;18.13;70.37;100484.11;2183592;79;22497;-77
2021/07/10 07:10:24;;;;;;;6.47;2.33;;;;;;;18.33;69.99;100483.59;2187821;79;21049;-73
2021/07/10 07:13:25;;;;;;;3.12;2.35;;;;;;;18.55;70.30;100492.73;2197421;79;21103;-75
2021/07/10 07:16:27;;;;;;;5.28;2.37;;;;;;;18.97;69.99;100483.86;2160470;80;21091;-75
2021/07/10 07:19:30;;;;;;;5.05;1.90;;;;;;;19.23;69.59;100485.10;2109402;81;21052;-75
2021/07/10 07:22:33;;;;;;;2.00;1.90;;;;;;;19.52;68.79;100482.05;2132545;81;21556;-75
2021/07/10 07:25:34;;;;;;;3.10;1.90;;;;;;;20.03;68.59;100485.12;2170181;79;21103;-75
2021/07/10 07:28:40;;;;;;;4.25;2.12;;;;;;;20.74;67.33;100479.78;2179927;79;21060;-74
2021/07/10 07:31:39;;;;;;;1.47;1.37;;;;;;;21.30;66.69;100481.90;2150719;80;21164;-75
2021/07/10 07:34:47;;;;;;;3.42;1.67;;;;;;;21.60;65.55;100480.05;2156967;80;21104;-75
2021/07/10 07:37:47;;;;;;;2.70;1.70;;;;;;;22.07;64.90;100481.98;2125550;81;21079;-74
2021/07/10 07:40:50;;;;;;;2.33;1.40;;;;;;;22.14;64.04;100484.88;2132448;81;21040;-75
2021/07/10 07:43:54;;;;;;;1.95;1.70;;;;;;;21.93;61.67;100479.53;2151954;81;21596;-75
2021/07/10 07:46:55;;;;;;;1.75;1.62;;;;;;;21.69;62.25;100484.05;2155000;79;21114;-77
2021/07/10 07:49:57;;;;;;;1.72;1.57;;;;;;;21.56;63.01;100492.88;2167640;80;21073;-74
2021/07/10 07:52:59;;;;;;;3.10;1.67;;;;;;;21.45;62.51;100493.94;2160123;80;21043;-75
2021/07/10 07:56:00;;;;;;;1.42;1.40;;;;;;;21.29;62.30;100499.97;2149900;80;21033;-75
2021/07/10 07:59:05;;;;;;;2.77;1.40;;;;;;;21.17;62.26;100489.62;2126551;81;21026;-73
2021/07/10 08:02:08;;;;;;;2.70;1.52;;;;;;;21.02;61.98;100498.13;2147059;81;21128;-75
2021/07/10 08:05:11;;;;;;;4.62;1.60;;;;;;;21.08;61.65;100497.22;2141085;81;21101;-74
2021/07/10 08:08:13;;;;;;;3.08;1.47;;;;;;;21.35;62.16;100492.84;2149059;81;21394;-74
2021/07/10 08:11:16;;;;;;;2.35;1.65;;;;;;;21.38;61.80;100489.18;2133717;81;21135;-74
2021/07/10 08:14:18;;;;;;;6.00;1.70;;;;;;;21.29;61.51;100494.58;2133403;81;21144;-73
2021/07/10 08:17:19;;;;;;;1.62;1.30;;;;;;;21.15;61.43;100490.41;2131287;81;21051;-72
2021/07/10 08:20:21;;;;;;;1.98;1.72;;;;;;;20.75;61.04;100493.55;2120531;81;22097;-73
2021/07/10 08:23:23;;;;;;;3.05;1.60;;;;;;;20.58;61.48;100497.36;2184119;79;21663;-75
2021/07/10 08:26:25;;;;;;;3.50;1.50;;;;;;;20.46;61.33;100489.70;2177108;79;21104;-77
2021/07/10 08:29:27;;;;;;;4.60;1.50;;;;;;;20.42;61.86;100496.06;2181702;79;21021;-75
2021/07/10 08:32:29;;;;;;;3.10;1.90;;;;;;;20.63;61.83;100489.97;2162311;79;21116;-76
2021/07/10 08:35:30;;;;;;;3.87;1.40;;;;;;;20.89;61.62;100503.67;2147965;81;21639;-75
2021/07/10 08:38:32;;;;;;;1.62;1.32;;;;;;;21.13;61.51;100501.41;2146346;81;21116;-75
2021/07/10 08:41:34;;;;;;;3.17;1.70;;;;;;;21.32;60.99;100502.74;2139700;81;21126;-74
2021/07/10 08:44:40;;;;;;;5.10;1.55;;;;;;;21.39;60.98;100500.27;2151946;80;21035;-74
2021/07/10 08:47:44;;;;;;;2.20;1.35;;;;;;;21.45;60.64;100494.47;2170909;79;21613;-76
2021/07/10 08:50:45;;;;;;;4.37;1.47;;;;;;;21.46;60.49;100499.66;2166243;80;21085;-75
2021/07/10 08:53:47;;;;;;;3.00;1.47;;;;;;;21.69;60.75;100499.44;2169754;79;21053;-74
2021/07/10 08:56:48;;;;;;;1.87;1.17;;;;;;;22.15;60.33;100495.97;2183390;79;21078;-75
2021/07/10 08:59:50;;;;;;;4.12;1.40;;;;;;;22.66;59.57;100496.88;2180001;79;21061;-75
2021/07/10 09:02:55;;;;;;;1.20;0.85;;;;;;;23.19;59.07;100503.42;2173176;79;21086;-76
2021/07/10 09:05:57;;;;;;;1.50;1.40;;;;;;;23.56;56.04;100493.55;2159227;80;21015;-76
2021/07/10 09:09:00;;;;;;;2.35;1.35;;;;;;;23.67;55.66;100489.14;2152368;79;21637;-74
2021/07/10 09:12:06;;;;;;;3.30;1.02;;;;;;;23.94;56.88;100491.55;2166242;80;21773;-75
2021/07/10 09:15:19;;;;;;;3.83;1.20;;;;;;;24.46;55.32;100483.67;2181962;79;21231;-75
2021/07/10 09:18:20;;;;;;;1.57;1.47;;;;;;;24.24;53.04;100489.00;2175254;79;21062;-74
2021/07/10 09:21:53;;;;;;;1.20;1.10;;;;;;;23.74;54.28;100491.72;2175229;80;21072;-75
2021/07/10 09:24:59;;;;;;;1.30;1.07;;;;;;;23.54;54.92;100491.64;2183226;80;21069;-74
2021/07/10 09:28:03;;;;;;;1.87;1.12;;;;;;;23.36;54.42;100485.06;2178589;80;21090;-74
2021/07/10 09:31:15;;;;;;;2.47;1.07;;;;;;;23.65;54.87;100489.91;2158428;79;21072;-74
2021/07/10 09:34:21;;;;;;;1.75;1.20;;;;;;;24.16;54.03;100487.56;2140721;79;20982;-75
2021/07/10 09:37:27;;;;;;;3.22;1.02;;;;;;;24.67;54.68;100487.50;2136488;81;21156;-74
2021/07/10 09:40:33;;;;;;;2.02;1.00;;;;;;;24.94;53.38;100486.19;2134204;81;21127;-75
2021/07/10 09:43:37;;;;;;;3.70;1.17;;;;;;;24.63;52.44;100490.41;2133786;81;21051;-75
2021/07/10 09:46:41;;;;;;;1.40;1.30;;;;;;;24.35;52.95;100487.27;2129144;81;21058;-75
2021/07/10 09:49:45;;;;;;;1.85;1.15;;;;;;;24.10;52.57;100487.20;2149747;81;22173;-74
2021/07/10 09:52:47;;;;;;;1.20;1.00;;;;;;;23.89;52.84;100486.57;2182184;80;21110;-74
2021/07/10 09:55:49;;;;;;;1.10;0.93;;;;;;;24.00;53.11;100485.67;2163057;80;24204;-77
2021/07/10 09:58:50;;;;;;;1.50;1.07;;;;;;;24.45;53.21;100479.87;2135176;81;21036;-74
2021/07/10 10:01:53;;;;;;;1.60;1.10;;;;;;;24.52;52.03;100485.38;2112057;81;21138;-75
2021/07/10 10:05:10;;;;;;;1.57;1.25;;;;;;;24.44;52.02;100480.41;2143975;81;21062;-75
2021/07/10 10:08:12;;;;;;;3.05;1.12;;;;;;;24.35;52.33;100484.02;2119728;81;21077;-76
2021/07/10 10:11:13;;;;;;;2.17;1.20;;;;;;;24.34;52.06;100485.64;2136735;81;21126;-75
2021/07/10 10:14:15;;;;;;;2.70;1.40;;;;;;;24.36;51.91;100484.86;2132824;81;21074;-76
2021/07/10 10:17:20;;;;;;;1.42;1.00;;;;;;;24.48;52.00;100482.08;2133886;81;20969;-74
2021/07/10 10:20:22;;;;;;;1.25;1.15;;;;;;;24.49;51.69;100481.81;2137758;81;21052;-75
2021/07/10 10:23:24;;;;;;;1.32;1.22;;;;;;;24.44;52.49;100480.92;2132930;81;21529;-75
2021/07/10 10:26:26;;;;;;;4.10;1.20;;;;;;;24.41;51.42;100478.67;2142839;81;21485;-75
2021/07/10 10:29:29;;;;;;;1.27;1.17;;;;;;;24.14;51.71;100480.73;2138434;81;21084;-74
2021/07/10 10:32:31;;;;;;;1.22;1.07;;;;;;;24.21;52.34;100481.91;2141473;81;21065;-75
2021/07/10 10:35:33;;;;;;;2.52;1.10;;;;;;;24.35;52.46;100479.14;2114530;81;21042;-75
2021/07/10 10:38:34;;;;;;;1.40;1.30;;;;;;;24.55;52.00;100482.19;2134442;81;21084;-75
2021/07/10 10:41:46;;;;;;;1.57;1.00;;;;;;;24.55;51.09;100486.77;2159192;80;21011;-75
2021/07/10 10:44:51;;;;;;;1.80;0.90;;;;;;;24.56;51.73;100485.17;2179957;79;21163;-74
2021/07/10 10:47:53;;;;;;;0.98;0.98;;;;;;;24.64;51.97;100490.72;2137719;81;21097;-75
2021/07/10 10:50:54;;;;;;;2.05;0.80;;;;;;;24.68;51.44;100492.38;2144068;81;21037;-75
2021/07/10 10:54:23;;;;;;;1.47;1.15;;;;;;;24.63;51.81;100486.88;2145601;81;21053;-76
2021/07/10 10:57:44;;;;;;;0.90;0.90;;;;;;;24.59;51.42;100490.09;2142262;81;21029;-75
2021/07/10 11:00:49;;;;;;;1.52;1.12;;;;;;;24.58;51.51;100492.53;2135757;81;21600;-74
2021/07/10 11:03:51;;;;;;;2.08;1.00;;;;;;;24.62;51.39;100492.84;2112665;82;21058;-76
2021/07/10 11:07:18;;;;;;;1.20;1.10;;;;;;;24.81;51.39;100481.16;2139028;81;21045;-75
2021/07/10 11:10:24;;;;;;;1.77;1.17;;;;;;;24.85;51.06;100480.93;2133145;81;21097;-73
2021/07/10 11:13:46;;;;;;;1.20;1.10;;;;;;;24.85;50.06;100486.36;2141376;81;21072;-72
2021/07/10 11:17:06;;;;;;;1.32;1.15;;;;;;;24.66;50.08;100485.02;2144090;81;21357;-75
2021/07/10 11:20:10;;;;;;;3.12;1.17;;;;;;;24.67;49.74;100479.90;2136683;81;21045;-75
2021/07/10 11:23:26;;;;;;;1.57;1.27;;;;;;;24.55;49.93;100485.41;2138046;81;21073;-75
2021/07/10 11:26:29;;;;;;;1.60;1.22;;;;;;;24.42;49.73;100474.91;2141270;81;21539;-78
2021/07/10 11:29:36;;;;;;;3.50;1.07;;;;;;;24.53;50.59;100480.25;2129870;81;21097;-76
2021/07/10 11:32:46;;;;;;;1.25;1.15;;;;;;;24.78;50.33;100477.60;2148819;81;21107;-78
2021/07/10 11:35:47;;;;;;;1.60;1.02;;;;;;;24.73;49.96;100474.28;2141276;81;21047;-79
2021/07/10 11:38:49;;;;;;;2.65;1.10;;;;;;;24.70;49.72;100472.61;2146465;81;21037;-78
2021/07/10 11:41:57;;;;;;;3.37;1.45;;;;;;;24.43;49.46;100478.75;2143486;81;21071;-74
2021/07/10 11:45:16;;;;;;;2.70;1.40;;;;;;;24.12;49.82;100474.73;2142622;81;21526;-78
2021/07/10 11:48:22;;;;;;;3.05;1.40;;;;;;;24.06;50.32;100474.37;2119538;81;21520;-72
2021/07/10 11:51:25;;;;;;;1.72;1.12;;;;;;;24.10;49.97;100477.71;2125941;81;21509;-77
2021/07/10 11:54:28;;;;;;;1.75;1.60;;;;;;;24.04;50.22;100465.13;2128901;81;21097;-78
2021/07/10 11:57:39;;;;;;;1.57;1.47;;;;;;;24.14;50.19;100465.29;2168005;79;21069;-74
2021/07/10 12:00:42;;;;;;;1.52;1.42;;;;;;;24.20;50.15;100462.66;2181989;79;21088;-76
2021/07/10 12:03:43;;;;;;;2.92;1.85;;;;;;;24.29;50.45;100467.39;2157783;79;21210;-75
2021/07/10 12:06:45;;;;;;;2.77;1.40;;;;;;;24.73;50.29;100459.89;2162683;79;21054;-78
2021/07/10 12:09:52;;;;;;;1.20;1.20;;;;;;;24.94;49.91;100453.63;2172139;79;21021;-78
2021/07/10 12:13:04;;;;;;;2.65;1.15;;;;;;;24.77;48.95;100452.88;2171118;79;21070;-75
2021/07/10 12:16:07;;;;;;;2.25;1.35;;;;;;;24.59;49.39;100457.55;2138057;81;21079;-74
2021/07/10 12:19:12;;;;;;;3.30;1.20;;;;;;;24.64;49.41;100457.31;2105202;81;21066;-77
2021/07/10 12:22:14;;;;;;;2.08;1.22;;;;;;;24.65;48.88;100456.27;2108157;82;21067;-75
2021/07/10 12:25:16;;;;;;;2.20;1.20;;;;;;;24.55;49.50;100452.36;2157368;80;21088;-76
2021/07/10 12:28:43;;;;;;;1.47;1.32;;;;;;;24.43;49.25;100452.98;2169898;79;21076;-74
2021/07/10 12:31:44;;;;;;;2.25;1.35;;;;;;;24.38;48.96;100452.88;2157971;79;21114;-74
2021/07/10 12:34:52;;;;;;;4.12;1.50;;;;;;;24.45;49.06;100454.92;2166482;79;21082;-76
2021/07/10 12:38:12;;;;;;;1.52;1.20;;;;;;;24.55;48.95;100449.64;2149834;80;21632;-76
2021/07/10 12:41:31;;;;;;;2.35;1.42;;;;;;;24.62;49.55;100441.30;2168412;79;21117;-76
2021/07/10 12:44:39;;;;;;;1.75;1.45;;;;;;;24.85;49.05;100444.30;2167797;79;21069;-75
2021/07/10 12:47:40;;;;;;;2.37;1.00;;;;;;;25.25;49.98;100443.13;2154153;80;21040;-77
2021/07/10 12:50:42;;;;;;;1.65;1.00;;;;;;;25.58;48.97;100431.77;2165528;80;21120;-76
2021/07/10 12:53:46;;;;;;;3.65;2.20;;;;;;;25.58;48.06;100431.77;2162646;80;21119;-80
2021/07/10 12:56:48;;;;;;;1.37;1.25;;;;;;;25.56;48.06;100436.09;2138130;81;21083;-75
2021/07/10 13:00:11;;;;;;;2.75;1.10;;;;;;;25.57;47.64;100428.23;2173949;79;21544;-75
2021/07/10 13:03:18;;;;;;;2.47;1.02;;;;;;;25.49;47.96;100428.70;2177696;79;21085;-76
2021/07/10 13:06:17;;;;;;;2.05;1.12;;;;;;;25.41;48.22;100427.27;2134799;81;21143;-77
2021/07/10 13:09:18;;;;;;;2.05;1.35;;;;;;;25.46;48.42;100426.51;2155325;80;21060;-77
2021/07/10 13:12:46;;;;;;;2.05;1.30;;;;;;;25.42;48.11;100425.37;2162411;79;21051;-79
2021/07/10 13:15:55;;;;;;;1.50;1.40;;;;;;;25.25;47.47;100429.01;2139910;81;21069;-77
2021/07/10 13:19:00;;;;;;;2.17;1.25;;;;;;;25.27;48.15;100428.77;2139128;81;21102;-75
2021/07/10 13:22:01;;;;;;;1.30;1.20;;;;;;;25.23;48.08;100426.30;2130304;81;21172;-77
2021/07/10 13:25:15;;;;;;;2.22;1.27;;;;;;;25.11;48.06;100428.29;2141726;81;21586;-78
2021/07/10 13:28:32;;;;;;;1.82;1.25;;;;;;;25.05;48.47;100422.80;2134689;81;21089;-77
2021/07/10 13:31:37;;;;;;;2.98;1.40;;;;;;;24.99;48.84;100421.11;2146365;81;21095;-77
2021/07/10 13:34:41;;;;;;;1.40;1.10;;;;;;;24.88;48.32;100423.97;2153967;79;21054;-76
2021/07/10 13:37:42;;;;;;;1.30;1.20;;;;;;;24.80;48.58;100420.63;2163127;80;21069;-70
2021/07/10 13:40:44;;;;;;;2.70;1.12;;;;;;;24.92;49.23;100415.59;2164820;79;21124;-78
2021/07/10 13:44:11;;;;;;;2.67;1.50;;;;;;;25.01;49.01;100416.26;2163294;79;21115;-75
2021/07/10 13:47:19;;;;;;;1.27;1.17;;;;;;;25.09;48.82;100413.63;2167357;80;21049;-71
2021/07/10 13:50:21;;;;;;;2.50;1.17;;;;;;;25.15;48.66;100410.47;2166182;79;21140;-75
2021/07/10 13:53:23;;;;;;;1.42;1.32;;;;;;;25.17;48.38;100409.65;2160792;79;21160;-77
2021/07/10 13:56:25;;;;;;;3.85;1.10;;;;;;;25.35;48.95;100405.22;2184216;79;21068;-75
2021/07/10 13:59:27;;;;;;;2.02;1.20;;;;;;;25.60;48.19;100395.66;2157696;79;21060;-76
2021/07/10 14:02:31;;;;;;;2.85;1.35;;;;;;;25.53;48.23;100397.76;2156136;79;21076;-72
2021/07/10 14:05:38;;;;;;;1.65;1.20;;;;;;;25.49;47.96;100393.39;2122856;81;21075;-76
2021/07/10 14:08:40;;;;;;;1.87;1.40;;;;;;;25.43;48.22;100394.44;2184699;79;21133;-74
2021/07/10 14:11:42;;;;;;;2.67;1.20;;;;;;;25.25;47.76;100402.40;2155410;80;21109;-75
2021/07/10 14:14:44;;;;;;;1.47;1.17;;;;;;;25.13;48.12;100393.57;2170701;80;21022;-73